createdAt,value
2022-11-09T00:02:10.600Z,18.08
2022-11-09T00:04:42.257Z,16.13
2022-11-09T00:07:14.111Z,15.13
2022-11-09T00:09:45.954Z,16.40
2022-11-09T00:12:17.543Z,15.90
2022-11-09T00:14:49.136Z,16.95
2022-11-09T00:17:20.706Z,15.65
2022-11-09T00:19:54.954Z,15.35
2022-11-09T00:22:28.533Z,17.92
2022-11-09T00:25:00.540Z,16.88
2022-11-09T00:27:32.156Z,17.55
2022-11-09T00:30:04.047Z,16.00
2022-11-09T00:32:35.831Z,15.50
2022-11-09T00:35:07.806Z,18.17
2022-11-09T00:37:39.988Z,14.82
2022-11-09T00:40:12.147Z,17.83
2022-11-09T00:42:43.742Z,18.05
2022-11-09T00:45:15.404Z,15.98
2022-11-09T00:47:47.027Z,15.50
2022-11-09T00:50:19.143Z,16.08
2022-11-09T00:52:50.827Z,15.35
2022-11-09T00:55:23.983Z,16.38
2022-11-09T00:57:56.702Z,16.92
2022-11-09T01:00:28.945Z,17.98
2022-11-09T01:03:00.602Z,15.48
2022-11-09T01:05:32.220Z,16.80
2022-11-09T01:08:03.863Z,17.80
2022-11-09T01:10:42.510Z,15.13
2022-11-09T01:13:15.978Z,15.90
2022-11-09T01:18:22.374Z,17.20
2022-11-09T01:20:53.976Z,16.33
2022-11-09T01:23:25.649Z,18.95
2022-11-09T01:26:01.654Z,20.45
2022-11-09T01:28:33.660Z,18.85
2022-11-09T01:31:14.822Z,18.38
2022-11-09T01:33:46.873Z,18.02
2022-11-09T01:36:24.256Z,17.17
2022-11-09T01:38:56.083Z,20.52
2022-11-09T01:41:28.957Z,21.90
2022-11-09T01:44:16.240Z,18.42
2022-11-09T01:46:53.951Z,16.30
2022-11-09T01:49:43.859Z,16.60
2022-11-09T01:52:27.352Z,18.15
2022-11-09T01:55:05.416Z,17.90
2022-11-09T01:57:43.197Z,17.08
2022-11-09T02:00:16.726Z,18.33
2022-11-09T02:02:53.029Z,17.88
2022-11-09T02:05:29.839Z,17.98
2022-11-09T02:08:03.397Z,19.30
2022-11-09T02:10:37.918Z,19.10
2022-11-09T02:13:12.528Z,17.65
2022-11-09T02:15:45.820Z,18.63
2022-11-09T02:18:18.359Z,18.60
2022-11-09T02:20:55.140Z,16.30
2022-11-09T02:23:29.192Z,18.55
2022-11-09T02:26:09.768Z,18.33
2022-11-09T02:28:42.446Z,17.85
2022-11-09T02:31:17.012Z,19.45
2022-11-09T02:33:50.820Z,18.85
2022-11-09T02:36:26.443Z,19.52
2022-11-09T02:38:58.358Z,19.25
2022-11-09T02:41:31.897Z,17.98
2022-11-09T02:44:04.367Z,19.15
2022-11-09T02:46:37.114Z,17.63
2022-11-09T02:49:08.966Z,17.90
2022-11-09T02:51:41.541Z,21.83
2022-11-09T02:54:13.136Z,19.00
2022-11-09T02:56:45.540Z,20.95
2022-11-09T02:59:17.185Z,19.90
2022-11-09T03:01:48.824Z,19.35
2022-11-09T03:04:20.456Z,22.08
2022-11-09T03:06:54.284Z,24.10
2022-11-09T03:09:25.913Z,17.75
2022-11-09T03:11:57.722Z,20.48
2022-11-09T03:14:29.347Z,18.92
2022-11-09T03:17:02.563Z,19.63
2022-11-09T03:19:34.149Z,18.65
2022-11-09T03:22:05.822Z,18.98
2022-11-09T03:24:37.380Z,19.42
2022-11-09T03:27:09.524Z,20.33
2022-11-09T03:29:41.134Z,18.23
2022-11-09T03:32:12.977Z,18.85
2022-11-09T03:34:44.955Z,18.35
2022-11-09T03:37:18.643Z,21.37
2022-11-09T03:39:52.389Z,21.70
2022-11-09T03:42:23.969Z,20.13
2022-11-09T03:44:55.637Z,21.02
2022-11-09T03:47:32.301Z,20.10
2022-11-09T03:52:36.582Z,19.52
2022-11-09T03:55:08.596Z,19.30
2022-11-09T03:57:44.533Z,22.95
2022-11-09T04:00:18.918Z,24.35
2022-11-09T04:02:52.127Z,21.27
2022-11-09T04:05:23.888Z,18.85
2022-11-09T04:07:57.589Z,19.80
2022-11-09T04:10:29.204Z,19.17
2022-11-09T04:13:03.627Z,16.95
2022-11-09T04:15:35.336Z,17.65
2022-11-09T04:18:06.883Z,19.88
2022-11-09T04:20:38.930Z,19.27
2022-11-09T04:23:12.540Z,19.23
2022-11-09T04:25:46.096Z,17.45
2022-11-09T04:28:23.043Z,17.88
2022-11-09T04:30:54.661Z,17.63
2022-11-09T04:33:26.225Z,19.73
2022-11-09T04:36:05.340Z,19.02
2022-11-09T04:38:36.927Z,18.48
2022-11-09T04:41:08.547Z,20.08
2022-11-09T04:43:40.130Z,15.43
2022-11-09T04:46:11.767Z,16.15
2022-11-09T04:48:44.721Z,17.33
2022-11-09T04:51:19.674Z,17.58
2022-11-09T04:53:51.313Z,16.65
2022-11-09T04:56:22.927Z,15.85
2022-11-09T04:58:54.481Z,20.58
2022-11-09T05:01:26.052Z,17.65
2022-11-09T05:04:00.548Z,17.45
2022-11-09T05:06:32.327Z,17.70
2022-11-09T05:09:06.437Z,16.30
2022-11-09T05:11:38.222Z,17.08
2022-11-09T05:14:09.829Z,20.25
2022-11-09T05:16:41.618Z,16.02
2022-11-09T05:19:13.188Z,14.85
2022-11-09T05:21:44.792Z,17.25
2022-11-09T05:24:16.336Z,17.02
2022-11-09T05:26:47.961Z,16.38
2022-11-09T05:29:19.505Z,16.10
2022-11-09T05:31:52.594Z,16.45
2022-11-09T05:34:24.248Z,14.23
2022-11-09T05:37:00.711Z,14.25
2022-11-09T05:39:34.780Z,15.85
2022-11-09T05:42:10.310Z,16.05
2022-11-09T05:44:41.871Z,17.58
2022-11-09T05:47:13.780Z,15.80
2022-11-09T05:49:45.337Z,15.93
2022-11-09T05:52:16.933Z,14.57
2022-11-09T05:54:48.479Z,15.77
2022-11-09T05:57:20.048Z,15.48
2022-11-09T05:59:51.655Z,16.38
2022-11-09T06:02:23.716Z,15.07
2022-11-09T06:04:55.392Z,14.10
2022-11-09T06:07:27.026Z,14.50
2022-11-09T06:09:58.589Z,15.00
2022-11-09T06:12:33.026Z,12.93
2022-11-09T06:15:05.843Z,15.85
2022-11-09T06:17:37.405Z,13.55
2022-11-09T06:20:09.307Z,13.93
2022-11-09T06:22:40.855Z,12.50
2022-11-09T06:25:12.380Z,12.40
2022-11-09T06:27:43.928Z,14.25
2022-11-09T06:30:16.038Z,13.13
2022-11-09T06:32:47.792Z,13.95
2022-11-09T06:35:19.392Z,12.77
2022-11-09T06:37:58.717Z,14.25
2022-11-09T06:40:31.559Z,12.48
2022-11-09T06:43:03.805Z,12.10
2022-11-09T06:45:35.976Z,10.90
2022-11-09T06:48:07.537Z,12.32
2022-11-09T06:50:39.396Z,14.60
2022-11-09T06:53:13.064Z,14.65
2022-11-09T06:55:50.340Z,12.02
2022-11-09T06:58:22.571Z,13.23
2022-11-09T07:00:54.671Z,11.88
2022-11-09T07:03:26.668Z,12.02
2022-11-09T07:05:58.261Z,13.25
2022-11-09T07:08:29.802Z,14.02
2022-11-09T07:11:12.885Z,10.80
2022-11-09T07:13:44.555Z,12.40
2022-11-09T07:16:20.613Z,12.15
2022-11-09T07:18:52.313Z,12.48
2022-11-09T07:21:24.092Z,10.18
2022-11-09T07:23:55.647Z,12.63
2022-11-09T07:26:27.505Z,10.60
2022-11-09T07:28:59.089Z,11.38
2022-11-09T07:31:31.935Z,10.98
2022-11-09T07:34:04.950Z,11.93
2022-11-09T07:36:39.215Z,13.93
2022-11-09T07:39:10.837Z,12.30
2022-11-09T07:41:42.435Z,13.38
2022-11-09T07:44:18.222Z,14.02
2022-11-09T07:46:49.828Z,13.20
2022-11-09T07:49:21.750Z,10.80
2022-11-09T07:51:53.544Z,13.27
2022-11-09T07:54:27.974Z,11.02
2022-11-09T07:56:59.527Z,13.13
2022-11-09T07:59:31.637Z,11.98
2022-11-09T08:02:03.263Z,10.30
2022-11-09T08:04:34.843Z,9.85
2022-11-09T08:07:08.426Z,9.95
2022-11-09T08:09:40.087Z,10.13
2022-11-09T08:12:11.624Z,9.80
2022-11-09T08:14:43.214Z,9.95
2022-11-09T08:17:14.803Z,10.15
2022-11-09T08:19:46.346Z,10.80
2022-11-09T08:22:17.898Z,14.32
2022-11-09T08:24:49.455Z,11.00
2022-11-09T08:27:22.817Z,8.27
2022-11-09T08:29:54.481Z,9.45
2022-11-09T08:32:26.104Z,9.30
2022-11-09T08:34:57.676Z,8.48
2022-11-09T08:37:29.552Z,8.55
2022-11-09T08:40:01.387Z,10.68
2022-11-09T08:42:33.186Z,11.20
2022-11-09T08:45:05.487Z,7.85
2022-11-09T08:47:38.645Z,9.15
2022-11-09T08:50:11.815Z,9.02
2022-11-09T08:52:43.408Z,9.60
2022-11-09T08:55:15.022Z,8.00
2022-11-09T08:57:46.838Z,11.20
2022-11-09T09:00:18.760Z,10.35
2022-11-09T09:02:50.481Z,11.27
2022-11-09T09:05:23.071Z,11.45
2022-11-09T09:07:54.820Z,9.88
2022-11-09T09:10:27.103Z,10.75
2022-11-09T09:12:58.719Z,9.90
2022-11-09T09:15:34.445Z,10.70
2022-11-09T09:18:06.147Z,13.18
2022-11-09T09:20:37.823Z,12.98
2022-11-09T09:23:09.413Z,9.57
2022-11-09T09:25:41.267Z,11.02
2022-11-09T09:28:12.862Z,10.70
2022-11-09T09:30:44.483Z,11.10
2022-11-09T09:33:16.173Z,10.43
2022-11-09T09:35:47.767Z,8.82
2022-11-09T09:38:19.559Z,9.75
2022-11-09T09:41:13.894Z,8.63
2022-11-09T09:43:49.687Z,11.32
2022-11-09T09:46:40.075Z,10.15
2022-11-09T09:49:23.330Z,13.13
2022-11-09T09:52:13.113Z,12.93
2022-11-09T09:55:09.995Z,13.48
2022-11-09T09:57:43.317Z,8.98
2022-11-09T10:00:25.192Z,12.13
2022-11-09T10:02:56.862Z,13.00
2022-11-09T10:05:48.798Z,12.23
2022-11-09T10:08:46.795Z,11.38
2022-11-09T10:12:01.432Z,9.55
2022-11-09T10:15:03.849Z,8.73
2022-11-09T10:17:54.276Z,9.60
2022-11-09T10:20:50.416Z,7.78
2022-11-09T10:23:31.924Z,9.57
2022-11-09T10:26:16.006Z,8.95
2022-11-09T10:29:15.022Z,8.23
2022-11-09T10:31:49.897Z,12.35
2022-11-09T10:34:40.400Z,9.63
2022-11-09T10:37:21.328Z,9.90
2022-11-09T10:40:00.420Z,15.65
2022-11-09T10:42:54.684Z,9.32
2022-11-09T10:45:46.163Z,8.70
2022-11-09T10:48:38.882Z,10.98
2022-11-09T10:51:37.864Z,10.55
2022-11-09T10:54:37.927Z,9.43
2022-11-09T10:57:28.484Z,9.27
2022-11-09T11:00:21.958Z,10.07
2022-11-09T11:03:17.639Z,10.90
2022-11-09T11:06:25.972Z,10.23
2022-11-09T11:09:21.914Z,10.88
2022-11-09T11:12:22.203Z,11.50
2022-11-09T11:15:29.152Z,10.85
2022-11-09T11:18:25.342Z,9.55
2022-11-09T11:21:20.728Z,11.68
2022-11-09T11:27:16.787Z,8.68
2022-11-09T11:30:10.421Z,12.68
2022-11-09T11:33:00.957Z,13.07
2022-11-09T11:36:02.042Z,10.07
2022-11-09T11:39:27.017Z,10.57
2022-11-09T11:42:56.643Z,12.15
2022-11-09T11:45:58.475Z,13.73
2022-11-09T11:49:30.174Z,12.48
2022-11-09T11:52:43.465Z,13.18
2022-11-09T11:56:04.618Z,12.10
2022-11-09T11:59:06.357Z,11.48
2022-11-09T12:02:08.734Z,10.40
2022-11-09T12:05:28.273Z,10.77
2022-11-09T12:08:43.319Z,11.82
2022-11-09T12:11:45.472Z,11.25
2022-11-09T12:14:47.446Z,10.80
2022-11-09T12:17:59.083Z,14.02
2022-11-09T12:21:24.667Z,12.00
2022-11-09T12:24:26.384Z,11.43
2022-11-09T12:27:34.252Z,10.60
2022-11-09T12:30:36.697Z,10.48
2022-11-09T12:33:57.704Z,10.80
2022-11-09T12:36:55.868Z,10.05
2022-11-09T12:39:50.863Z,12.77
2022-11-09T12:43:05.388Z,11.40
2022-11-09T12:45:57.941Z,12.93
2022-11-09T12:48:48.913Z,12.80
2022-11-09T12:51:39.443Z,13.88
2022-11-09T12:54:29.778Z,11.98
2022-11-09T12:57:25.460Z,12.23
2022-11-09T13:00:47.447Z,12.05
2022-11-09T13:03:51.211Z,13.30
2022-11-09T13:06:42.644Z,12.13
2022-11-09T13:09:44.302Z,11.55
2022-11-09T13:12:40.290Z,11.70
2022-11-09T13:15:35.145Z,10.40
2022-11-09T13:18:48.962Z,9.27
2022-11-09T13:21:41.960Z,10.40
2022-11-09T13:24:32.418Z,12.00
2022-11-09T13:27:40.425Z,9.82
2022-11-09T13:30:43.421Z,9.13
2022-11-09T13:33:37.145Z,11.40
2022-11-09T13:36:27.452Z,10.30
2022-11-09T13:39:29.273Z,11.52
2022-11-09T13:42:32.581Z,10.13
2022-11-09T13:45:36.601Z,9.52
2022-11-09T13:48:46.808Z,12.63
2022-11-09T13:51:46.878Z,11.18
2022-11-09T13:54:37.739Z,11.13
2022-11-09T13:57:28.417Z,11.00
2022-11-09T14:00:24.574Z,9.63
2022-11-09T14:03:20.797Z,9.48
2022-11-09T14:06:12.726Z,10.38
2022-11-09T14:09:03.198Z,13.52
2022-11-09T14:12:26.279Z,10.93
2022-11-09T14:15:22.742Z,11.82
2022-11-09T14:18:32.543Z,12.38
2022-11-09T14:21:52.573Z,13.43
2022-11-09T14:24:46.868Z,13.02
2022-11-09T14:27:37.093Z,12.82
2022-11-09T14:30:30.392Z,11.38
2022-11-09T14:33:24.287Z,13.50
2022-11-09T14:36:14.781Z,13.15
2022-11-09T14:39:14.820Z,11.73
2022-11-09T14:42:07.153Z,14.15
2022-11-09T14:44:58.200Z,14.63
2022-11-09T14:47:50.868Z,12.48
2022-11-09T14:50:41.197Z,14.93
2022-11-09T14:53:35.879Z,10.95
2022-11-09T14:56:26.281Z,10.38
2022-11-09T14:59:32.575Z,13.07
2022-11-09T15:02:23.952Z,13.77
2022-11-09T15:05:39.044Z,13.75
2022-11-09T15:08:30.161Z,13.15
2022-11-09T15:11:21.708Z,11.75
2022-11-09T15:14:32.632Z,13.43
2022-11-09T15:17:27.212Z,13.55
2022-11-09T15:20:17.100Z,12.95
2022-11-09T15:23:22.961Z,11.27
2022-11-09T15:26:40.047Z,11.90
2022-11-09T15:29:40.869Z,10.82
2022-11-09T15:32:39.093Z,10.48
2022-11-09T15:35:29.494Z,12.55
2022-11-09T15:38:41.382Z,11.50
2022-11-09T15:41:31.852Z,11.88
2022-11-09T15:44:22.265Z,10.23
2022-11-09T15:47:35.710Z,11.32
2022-11-09T15:50:27.448Z,11.50
2022-11-09T15:53:17.595Z,14.90
2022-11-09T15:56:19.961Z,10.95
2022-11-09T15:59:28.179Z,13.95
2022-11-09T16:02:21.353Z,13.43
2022-11-09T16:05:12.359Z,11.30
2022-11-09T16:08:02.799Z,12.07
2022-11-09T16:10:52.692Z,10.45
2022-11-09T16:13:43.156Z,11.60
2022-11-09T16:16:33.698Z,11.45
2022-11-09T16:19:23.553Z,11.65
2022-11-09T16:22:15.901Z,13.65
2022-11-09T16:25:06.355Z,13.55
2022-11-09T16:27:58.524Z,14.63
2022-11-09T16:30:48.474Z,13.70
2022-11-09T16:33:39.631Z,14.43
2022-11-09T16:36:30.425Z,12.45
2022-11-09T16:39:20.621Z,11.73
2022-11-09T16:42:13.192Z,13.35
2022-11-09T16:45:10.298Z,13.18
2022-11-09T16:48:03.444Z,13.75
2022-11-09T16:50:53.762Z,13.73
2022-11-09T16:53:43.729Z,12.60
2022-11-09T16:56:35.300Z,14.02
2022-11-09T16:59:26.581Z,12.18
2022-11-09T17:02:16.502Z,12.07
2022-11-09T17:05:07.238Z,12.13
2022-11-09T17:07:57.455Z,13.57
2022-11-09T17:10:47.737Z,12.27
2022-11-09T17:13:39.084Z,12.35
2022-11-09T17:16:29.426Z,18.27
2022-11-09T17:19:20.498Z,15.20
2022-11-09T17:22:10.585Z,14.93
2022-11-09T17:25:00.890Z,14.75
2022-11-09T17:27:51.143Z,15.88
2022-11-09T17:30:41.977Z,19.45
2022-11-09T17:33:32.246Z,15.30
2022-11-09T17:36:48.915Z,15.70
2022-11-09T17:39:33.348Z,17.05
2022-11-09T17:42:25.720Z,17.52
2022-11-09T17:45:15.827Z,17.05
2022-11-09T17:48:06.312Z,16.27
2022-11-09T17:50:57.703Z,16.00
2022-11-09T17:53:48.490Z,18.45
2022-11-09T17:56:39.851Z,15.02
2022-11-09T17:59:30.009Z,14.88
2022-11-09T18:02:23.132Z,16.70
2022-11-09T18:05:15.713Z,15.27
2022-11-09T18:08:10.171Z,16.73
2022-11-09T18:11:00.182Z,17.75
2022-11-09T18:13:50.356Z,16.08
2022-11-09T18:16:40.704Z,16.38
2022-11-09T18:19:31.112Z,16.40
2022-11-09T18:22:22.410Z,16.58
2022-11-09T18:25:12.738Z,16.90
2022-11-09T18:28:03.296Z,16.10
2022-11-09T18:30:53.210Z,16.13
2022-11-09T18:33:44.105Z,18.60
2022-11-09T18:36:34.413Z,18.15
2022-11-09T18:39:26.541Z,17.90
2022-11-09T18:42:16.584Z,19.65
2022-11-09T18:45:07.766Z,18.50
2022-11-09T18:47:57.964Z,20.65
2022-11-09T18:50:52.898Z,17.25
2022-11-09T18:53:44.916Z,15.32
2022-11-09T18:56:35.028Z,15.93
2022-11-09T18:59:25.415Z,18.42
2022-11-09T19:02:16.776Z,17.17
2022-11-09T19:05:07.016Z,16.73
2022-11-09T19:07:57.375Z,17.02
2022-11-09T19:10:47.504Z,17.90
2022-11-09T19:13:38.741Z,17.98
2022-11-09T19:16:29.285Z,17.30
2022-11-09T19:19:19.741Z,15.00
2022-11-09T19:22:16.947Z,16.83
2022-11-09T19:25:07.530Z,21.10
2022-11-09T19:27:57.533Z,17.55
2022-11-09T19:30:48.756Z,17.10
2022-11-09T19:33:39.152Z,16.13
2022-11-09T19:36:31.263Z,16.92
2022-11-09T19:39:22.154Z,17.40
2022-11-09T19:42:12.277Z,16.52
2022-11-09T19:45:02.799Z,20.38
2022-11-09T19:47:52.986Z,18.75
2022-11-09T19:50:51.520Z,18.83
2022-11-09T19:53:42.828Z,16.27
2022-11-09T19:56:33.502Z,18.30
2022-11-09T19:59:24.294Z,20.23
2022-11-09T20:02:14.386Z,17.30
2022-11-09T20:05:05.113Z,20.27
2022-11-09T20:07:55.199Z,18.40
2022-11-09T20:10:45.305Z,19.15
2022-11-09T20:13:37.937Z,17.77
2022-11-09T20:16:28.222Z,20.35
2022-11-09T20:19:18.672Z,19.65
2022-11-09T20:22:08.841Z,19.42
2022-11-09T20:24:59.251Z,20.23
2022-11-09T20:27:49.679Z,19.40
2022-11-09T20:30:40.721Z,20.40
2022-11-09T20:33:30.628Z,19.08
2022-11-09T20:36:20.896Z,20.08
2022-11-09T20:39:11.344Z,18.77
2022-11-09T20:42:01.911Z,19.70
2022-11-09T20:44:54.611Z,20.60
2022-11-09T20:48:07.240Z,20.00
2022-11-09T20:50:55.052Z,20.23
2022-11-09T20:53:46.905Z,22.92
2022-11-09T20:56:40.347Z,20.20
2022-11-09T20:59:30.608Z,18.40
2022-11-09T21:02:20.778Z,22.23
2022-11-09T21:05:11.193Z,21.27
2022-11-09T21:08:01.538Z,20.70
2022-11-09T21:10:52.128Z,19.75
2022-11-09T21:13:44.029Z,21.27
2022-11-09T21:16:34.348Z,20.98
2022-11-09T21:19:24.744Z,22.00
2022-11-09T21:22:14.952Z,20.38
2022-11-09T21:25:26.251Z,19.77
2022-11-09T21:28:35.239Z,19.92
2022-11-09T21:31:25.513Z,20.70
2022-11-09T21:34:15.789Z,22.80
2022-11-09T21:37:06.343Z,20.58
2022-11-09T21:39:56.263Z,21.10
2022-11-09T21:42:46.531Z,21.52
2022-11-09T21:45:36.688Z,22.00
2022-11-09T21:48:27.252Z,21.52
2022-11-09T21:51:18.600Z,25.48
2022-11-09T21:54:09.722Z,22.58
2022-11-09T21:57:00.186Z,24.52
2022-11-09T21:59:50.557Z,26.35
2022-11-09T22:02:41.891Z,22.48
2022-11-09T22:05:36.640Z,24.63
2022-11-09T22:08:26.728Z,24.80
2022-11-09T22:11:19.849Z,24.33
2022-11-09T22:14:30.928Z,23.42
2022-11-09T22:17:21.321Z,24.85
2022-11-09T22:20:30.336Z,25.33
2022-11-09T22:23:23.782Z,26.70
2022-11-09T22:26:14.516Z,25.45
2022-11-09T22:29:05.353Z,23.10
2022-11-09T22:31:55.959Z,22.90
2022-11-09T22:34:45.981Z,27.88
2022-11-09T22:37:36.357Z,24.10
2022-11-09T22:40:26.644Z,27.10
2022-11-09T22:43:17.009Z,27.02
2022-11-09T22:46:16.475Z,29.65
2022-11-09T22:49:08.396Z,26.88
2022-11-09T22:51:58.742Z,28.65
2022-11-09T22:54:49.063Z,27.85
2022-11-09T22:57:39.441Z,24.55
2022-11-09T23:00:29.931Z,30.65
2022-11-09T23:03:21.111Z,28.40
2022-11-09T23:06:19.253Z,27.83
2022-11-09T23:09:09.458Z,27.80
2022-11-09T23:11:59.688Z,27.38
2022-11-09T23:15:05.280Z,27.67
2022-11-09T23:18:15.777Z,32.10
2022-11-09T23:21:06.043Z,33.08
2022-11-09T23:23:59.622Z,31.98
2022-11-09T23:26:49.958Z,33.75
2022-11-09T23:29:40.124Z,31.15
2022-11-09T23:32:30.382Z,29.38
2022-11-09T23:35:20.564Z,32.83
2022-11-09T23:38:11.667Z,32.70
2022-11-09T23:41:02.925Z,31.42
2022-11-09T23:43:55.430Z,32.10
2022-11-09T23:46:48.425Z,32.20
2022-11-09T23:49:38.674Z,30.23
2022-11-09T23:52:28.942Z,31.63
2022-11-09T23:55:19.290Z,27.48
2022-11-09T23:58:09.501Z,28.80
